Time;durP1;ratioP1;P1;durP2;ratioP2;P2;SDS_P1;SDS_P2;PMS_P1;PMS_P2;Temp;Humidity;BMP_temperature;BMP_pressure;BME280_temperature;BME280_humidity;BME280_pressure;Samples;Min_cycle;Max_cycle;Signal;HPM_P1;HPM_P2
2024/01/23 00:02:11;;;;;;;;;0.75;0.75;;;;;;;;5062909;28;10080;-80
2024/01/23 00:04:38;;;;;;;;;0.50;0.50;;;;;;;;5061992;28;10299;-83
2024/01/23 00:07:05;;;;;;;;;1.00;1.00;;;;;;;;5069167;28;10233;-81
2024/01/23 00:09:33;;;;;;;;;0.00;0.00;;;;;;;;5057576;28;10340;-81
2024/01/23 00:12:02;;;;;;;;;2.50;0.50;;;;;;;;5068810;28;11129;-81
2024/01/23 00:14:33;;;;;;;;;2.00;2.00;;;;;;;;5071371;28;11094;-80
2024/01/23 00:17:02;;;;;;;;;1.00;1.00;;;;;;;;5059490;28;10480;-81
2024/01/23 00:19:31;;;;;;;;;2.00;0.75;;;;;;;;5061368;28;10374;-81
2024/01/23 00:21:58;;;;;;;;;1.00;1.00;;;;;;;;5069246;28;10466;-82
2024/01/23 00:24:30;;;;;;;;;1.00;1.00;;;;;;;;5068243;28;10317;-81
2024/01/23 00:26:59;;;;;;;;;2.25;0.75;;;;;;;;5067551;28;10395;-83
2024/01/23 00:29:26;;;;;;;;;4.25;2.00;;;;;;;;5059937;28;10231;-82
2024/01/23 00:31:54;;;;;;;;;4.00;2.25;;;;;;;;5058567;28;10116;-82
2024/01/23 00:34:21;;;;;;;;;4.00;2.00;;;;;;;;5049070;28;10172;-82
2024/01/23 00:36:49;;;;;;;;;6.50;4.50;;;;;;;;5051015;28;10427;-81
2024/01/23 00:39:17;;;;;;;;;2.25;2.25;;;;;;;;5051511;28;10456;-81
2024/01/23 00:41:44;;;;;;;;;3.00;1.50;;;;;;;;5068524;28;10545;-81
2024/01/23 00:44:11;;;;;;;;;4.00;2.00;;;;;;;;5064211;28;10444;-82
2024/01/23 00:46:39;;;;;;;;;2.00;2.00;;;;;;;;5059652;28;10743;-82
2024/01/23 00:49:09;;;;;;;;;3.75;2.25;;;;;;;;5065200;28;10481;-82
2024/01/23 00:51:36;;;;;;;;;2.00;1.25;;;;;;;;5061059;28;11449;-82
2024/01/23 00:54:05;;;;;;;;;6.75;3.50;;;;;;;;5067430;28;10472;-81
2024/01/23 00:56:32;;;;;;;;;2.25;1.75;;;;;;;;5065695;28;10673;-80
2024/01/23 00:59:01;;;;;;;;;2.00;1.25;;;;;;;;5073259;28;10447;-81
2024/01/23 01:01:32;;;;;;;;;2.00;2.00;;;;;;;;5073722;28;10420;-81
2024/01/23 01:04:01;;;;;;;;;1.75;1.75;;;;;;;;5074040;28;10584;-82
2024/01/23 01:06:31;;;;;;;;;3.25;2.00;;;;;;;;5074302;28;10500;-80
2024/01/23 01:08:59;;;;;;;;;2.50;2.50;;;;;;;;5056586;28;10625;-81
2024/01/23 01:11:28;;;;;;;;;4.75;2.00;;;;;;;;5054649;28;10598;-81
2024/01/23 01:13:56;;;;;;;;;1.00;1.00;;;;;;;;5054331;28;11553;-80
2024/01/23 01:16:23;;;;;;;;;3.00;1.75;;;;;;;;5063079;28;10533;-81
2024/01/23 01:18:50;;;;;;;;;2.50;2.00;;;;;;;;5060182;28;10399;-81
2024/01/23 01:21:17;;;;;;;;;4.50;2.50;;;;;;;;5067877;28;10877;-78
2024/01/23 01:23:45;;;;;;;;;4.75;3.00;;;;;;;;5075058;28;10608;-78
2024/01/23 01:26:12;;;;;;;;;3.00;3.00;;;;;;;;5068588;28;10886;-80
2024/01/23 01:28:41;;;;;;;;;6.00;2.75;;;;;;;;5067585;28;10775;-81
2024/01/23 01:31:08;;;;;;;;;3.75;2.50;;;;;;;;5065419;28;10794;-82
2024/01/23 01:33:38;;;;;;;;;3.25;3.25;;;;;;;;5065554;28;10839;-81
2024/01/23 01:36:07;;;;;;;;;3.00;1.50;;;;;;;;5071283;28;10796;-81
2024/01/23 01:38:34;;;;;;;;;3.75;3.50;;;;;;;;5072024;28;10669;-81
2024/01/23 01:41:03;;;;;;;;;1.25;1.25;;;;;;;;5070052;28;10770;-81
2024/01/23 01:43:32;;;;;;;;;4.00;2.00;;;;;;;;5061944;28;10692;-81
2024/01/23 01:46:12;;;;;;;;;5.00;2.50;;;;;;;;5075649;28;10755;-81
2024/01/23 01:48:39;;;;;;;;;2.00;2.00;;;;;;;;5071918;28;10679;-82
2024/01/23 01:51:07;;;;;;;;;3.00;1.00;;;;;;;;5069808;28;10668;-80
2024/01/23 01:53:35;;;;;;;;;4.75;2.50;;;;;;;;5070579;28;10662;-81
2024/01/23 01:56:04;;;;;;;;;4.00;2.00;;;;;;;;5072958;28;11268;-82
2024/01/23 01:58:32;;;;;;;;;5.00;3.75;;;;;;;;5070848;28;10680;-83
2024/01/23 02:01:01;;;;;;;;;2.75;2.00;;;;;;;;5070400;28;10792;-81
2024/01/23 02:03:31;;;;;;;;;3.00;1.50;;;;;;;;5070331;28;10834;-81
2024/01/23 02:06:01;;;;;;;;;4.00;2.75;;;;;;;;5069621;28;10849;-81
2024/01/23 02:08:31;;;;;;;;;2.50;2.50;;;;;;;;5071911;28;10766;-82
2024/01/23 02:11:01;;;;;;;;;4.50;3.25;;;;;;;;5071781;28;10747;-80
2024/01/23 02:13:29;;;;;;;;;6.50;2.25;;;;;;;;5072045;28;10869;-83
2024/01/23 02:15:57;;;;;;;;;2.25;2.25;;;;;;;;5067230;28;10807;-81
2024/01/23 02:18:24;;;;;;;;;2.00;2.00;;;;;;;;5061015;28;10776;-80
2024/01/23 02:20:53;;;;;;;;;2.00;2.00;;;;;;;;5068932;28;10775;-81
2024/01/23 02:23:20;;;;;;;;;4.50;2.00;;;;;;;;5070789;28;11410;-80
2024/01/23 02:25:49;;;;;;;;;3.75;2.75;;;;;;;;5069878;28;10820;-82
2024/01/23 02:28:18;;;;;;;;;3.50;2.00;;;;;;;;5070449;28;10835;-81
2024/01/23 02:30:46;;;;;;;;;7.00;3.00;;;;;;;;5067562;28;10699;-81
2024/01/23 02:33:13;;;;;;;;;3.25;2.00;;;;;;;;5068966;28;10749;-80
2024/01/23 02:35:41;;;;;;;;;3.25;2.25;;;;;;;;5070653;28;10638;-82
2024/01/23 02:38:08;;;;;;;;;4.75;2.75;;;;;;;;5069147;28;10823;-81
2024/01/23 02:40:36;;;;;;;;;2.00;2.00;;;;;;;;5067561;28;11512;-82
2024/01/23 02:43:05;;;;;;;;;4.00;3.50;;;;;;;;5069091;28;10522;-81
2024/01/23 02:45:32;;;;;;;;;1.25;0.50;;;;;;;;5072938;28;10844;-81
2024/01/23 02:48:01;;;;;;;;;7.50;1.50;;;;;;;;5070543;28;10865;-81
2024/01/23 02:50:30;;;;;;;;;6.50;2.75;;;;;;;;5075831;28;10841;-81
2024/01/23 02:52:58;;;;;;;;;3.50;1.25;;;;;;;;5076288;28;10761;-81
2024/01/23 02:55:25;;;;;;;;;3.75;2.50;;;;;;;;5075719;28;10753;-81
2024/01/23 02:57:52;;;;;;;;;6.25;2.00;;;;;;;;5072225;28;10901;-81
2024/01/23 03:00:21;;;;;;;;;2.00;0.75;;;;;;;;5073812;28;10861;-80
2024/01/23 03:02:49;;;;;;;;;2.50;2.25;;;;;;;;5069585;28;10945;-79
2024/01/23 03:05:16;;;;;;;;;3.00;3.00;;;;;;;;5069953;28;10784;-82
2024/01/23 03:07:43;;;;;;;;;2.00;2.00;;;;;;;;5069323;28;11026;-81
2024/01/23 03:10:12;;;;;;;;;4.00;1.00;;;;;;;;5070064;28;10673;-80
2024/01/23 03:12:40;;;;;;;;;2.75;2.75;;;;;;;;5067617;28;10755;-81
2024/01/23 03:15:07;;;;;;;;;3.00;1.50;;;;;;;;5066768;28;10873;-81
2024/01/23 03:17:37;;;;;;;;;3.00;1.00;;;;;;;;5067276;28;10772;-81
2024/01/23 03:20:05;;;;;;;;;2.50;1.50;;;;;;;;5068486;28;10872;-81
2024/01/23 03:22:32;;;;;;;;;2.50;2.25;;;;;;;;5067441;28;10980;-82
2024/01/23 03:25:02;;;;;;;;;1.50;1.25;;;;;;;;5068436;28;10903;-82
2024/01/23 03:27:32;;;;;;;;;1.50;1.50;;;;;;;;5069236;28;11488;-80
2024/01/23 03:30:02;;;;;;;;;2.00;1.00;;;;;;;;5071054;28;10777;-81
2024/01/23 03:32:32;;;;;;;;;3.00;1.25;;;;;;;;5072210;28;10702;-80
2024/01/23 03:35:01;;;;;;;;;3.25;1.75;;;;;;;;5073297;28;10826;-80
2024/01/23 03:37:30;;;;;;;;;2.00;2.00;;;;;;;;5072258;28;10837;-80
2024/01/23 03:39:58;;;;;;;;;2.50;2.50;;;;;;;;5069193;28;10746;-80
2024/01/23 03:42:25;;;;;;;;;5.00;1.00;;;;;;;;5069326;28;10771;-80
2024/01/23 03:44:52;;;;;;;;;2.00;2.00;;;;;;;;5068720;28;10747;-81
2024/01/23 03:47:20;;;;;;;;;4.25;1.00;;;;;;;;5069529;28;10771;-82
2024/01/23 03:49:47;;;;;;;;;3.50;2.25;;;;;;;;5068988;28;10756;-81
2024/01/23 03:52:17;;;;;;;;;4.75;1.50;;;;;;;;5069059;28;10939;-81
2024/01/23 03:54:44;;;;;;;;;1.00;1.00;;;;;;;;5067735;28;10829;-80
2024/01/23 03:57:11;;;;;;;;;4.00;2.00;;;;;;;;5058552;28;10727;-82
2024/01/23 03:59:38;;;;;;;;;0.00;0.00;;;;;;;;5065672;28;10901;-81
2024/01/23 04:02:06;;;;;;;;;6.75;1.75;;;;;;;;5073361;28;10779;-78
2024/01/23 04:04:33;;;;;;;;;1.00;1.00;;;;;;;;5074563;28;10921;-80
2024/01/23 04:07:00;;;;;;;;;3.00;2.00;;;;;;;;5073975;28;11032;-82
2024/01/23 04:09:32;;;;;;;;;5.00;2.75;;;;;;;;5069297;28;10931;-82
2024/01/23 04:12:02;;;;;;;;;3.00;1.50;;;;;;;;5068846;28;10833;-82
2024/01/23 04:14:29;;;;;;;;;1.25;1.25;;;;;;;;5065897;28;10879;-82
2024/01/23 04:16:57;;;;;;;;;5.00;2.50;;;;;;;;5068881;28;10870;-80
2024/01/23 04:19:24;;;;;;;;;3.75;2.00;;;;;;;;5068238;28;10967;-81
2024/01/23 04:21:51;;;;;;;;;6.00;1.75;;;;;;;;5068957;28;10856;-80
2024/01/23 04:24:18;;;;;;;;;6.75;2.50;;;;;;;;5068389;28;10743;-81
2024/01/23 04:26:47;;;;;;;;;2.75;2.00;;;;;;;;5067835;28;11029;-81
2024/01/23 04:29:15;;;;;;;;;4.00;4.00;;;;;;;;5067790;28;10887;-80
2024/01/23 04:31:42;;;;;;;;;1.00;1.00;;;;;;;;5069048;28;10776;-80
2024/01/23 04:34:09;;;;;;;;;3.00;3.00;;;;;;;;5069139;28;10849;-81
2024/01/23 04:36:37;;;;;;;;;2.50;1.00;;;;;;;;5075887;28;11091;-81
2024/01/23 04:39:05;;;;;;;;;4.00;2.00;;;;;;;;5077700;28;10831;-83
2024/01/23 04:41:32;;;;;;;;;2.00;2.00;;;;;;;;5076803;28;10975;-81
2024/01/23 04:44:00;;;;;;;;;7.50;3.00;;;;;;;;5072619;28;11009;-81
2024/01/23 04:46:30;;;;;;;;;1.75;1.75;;;;;;;;5076388;28;11057;-82
2024/01/23 04:48:57;;;;;;;;;5.75;2.00;;;;;;;;5075091;28;10876;-82
2024/01/23 04:51:25;;;;;;;;;1.00;1.00;;;;;;;;5067771;28;11647;-82
2024/01/23 04:53:52;;;;;;;;;5.00;1.75;;;;;;;;5063303;28;10857;-82
2024/01/23 04:56:19;;;;;;;;;4.75;3.00;;;;;;;;5046124;28;10852;-82
2024/01/23 04:58:49;;;;;;;;;3.75;2.25;;;;;;;;5042390;28;10905;-82
2024/01/23 05:01:18;;;;;;;;;3.00;2.00;;;;;;;;5039464;28;10803;-84
2024/01/23 05:03:45;;;;;;;;;5.00;1.75;;;;;;;;5041766;28;10918;-82
2024/01/23 05:06:13;;;;;;;;;3.50;1.75;;;;;;;;5045423;28;10988;-81
2024/01/23 05:08:40;;;;;;;;;3.25;3.00;;;;;;;;5049025;28;10823;-83
2024/01/23 05:11:08;;;;;;;;;1.00;1.00;;;;;;;;5054764;28;11048;-81
2024/01/23 05:13:35;;;;;;;;;1.75;1.75;;;;;;;;5054272;28;10842;-82
2024/01/23 05:16:02;;;;;;;;;4.00;1.00;;;;;;;;5049791;28;10945;-82
2024/01/23 05:18:33;;;;;;;;;2.75;2.50;;;;;;;;5036955;28;10911;-82
2024/01/23 05:21:08;;;;;;;;;6.25;1.75;;;;;;;;5044045;28;10900;-82
2024/01/23 05:23:35;;;;;;;;;4.00;1.00;;;;;;;;5045171;28;10963;-83
2024/01/23 05:26:02;;;;;;;;;1.75;1.00;;;;;;;;5058918;28;11032;-83
2024/01/23 05:28:34;;;;;;;;;2.25;2.25;;;;;;;;5057173;28;10939;-81
2024/01/23 05:31:01;;;;;;;;;2.00;2.00;;;;;;;;5054114;28;10803;-82
2024/01/23 05:33:30;;;;;;;;;3.00;2.25;;;;;;;;5053049;28;11567;-81
2024/01/23 05:36:02;;;;;;;;;5.50;2.00;;;;;;;;5054587;28;10900;-74
2024/01/23 05:38:32;;;;;;;;;8.25;3.25;;;;;;;;5044175;28;10735;-75
2024/01/23 05:41:02;;;;;;;;;7.00;3.00;;;;;;;;5054251;28;10847;-73
2024/01/23 05:43:33;;;;;;;;;3.75;2.00;;;;;;;;5054279;28;10937;-73
2024/01/23 05:46:02;;;;;;;;;8.00;2.00;;;;;;;;5046346;28;10824;-77
2024/01/23 05:48:30;;;;;;;;;3.00;3.00;;;;;;;;5052956;28;10915;-77
2024/01/23 05:51:00;;;;;;;;;1.00;1.00;;;;;;;;5053594;28;10941;-73
2024/01/23 05:53:27;;;;;;;;;4.00;2.00;;;;;;;;5054115;28;10836;-75
2024/01/23 05:55:54;;;;;;;;;2.50;2.50;;;;;;;;5067861;28;11022;-76
2024/01/23 05:58:21;;;;;;;;;4.00;2.50;;;;;;;;5069783;28;10722;-73
2024/01/23 06:00:59;;;;;;;;;6.75;2.00;;;;;;;;5073440;28;10754;-73
2024/01/23 06:03:26;;;;;;;;;6.00;3.00;;;;;;;;5068009;28;10942;-75
2024/01/23 06:05:54;;;;;;;;;3.50;0.00;;;;;;;;5073506;28;10897;-74
2024/01/23 06:08:22;;;;;;;;;7.00;4.50;;;;;;;;5073951;28;10743;-75
2024/01/23 06:10:50;;;;;;;;;2.75;1.00;;;;;;;;5073276;28;10948;-77
2024/01/23 06:13:18;;;;;;;;;6.00;3.00;;;;;;;;5074168;28;10883;-76
2024/01/23 06:15:46;;;;;;;;;5.25;5.25;;;;;;;;5072405;28;11598;-77
2024/01/23 06:18:13;;;;;;;;;6.00;3.75;;;;;;;;5074829;28;11076;-75
2024/01/23 06:20:42;;;;;;;;;5.50;4.00;;;;;;;;5071144;28;10891;-75
2024/01/23 06:23:10;;;;;;;;;5.25;4.00;;;;;;;;5073519;28;10886;-77
2024/01/23 06:25:38;;;;;;;;;2.75;1.00;;;;;;;;5074457;28;10974;-76
2024/01/23 06:28:06;;;;;;;;;1.00;1.00;;;;;;;;5075814;28;10762;-77
2024/01/23 06:30:33;;;;;;;;;6.25;4.25;;;;;;;;5071027;28;10965;-76
2024/01/23 06:33:04;;;;;;;;;4.50;3.00;;;;;;;;5075575;28;10928;-75
2024/01/23 06:35:31;;;;;;;;;2.00;2.00;;;;;;;;5073059;28;10835;-78
2024/01/23 06:38:06;;;;;;;;;4.75;1.00;;;;;;;;5073430;28;10917;-76
2024/01/23 06:40:42;;;;;;;;;5.50;2.00;;;;;;;;5073207;28;10813;-74
2024/01/23 06:43:13;;;;;;;;;9.50;3.00;;;;;;;;5058479;28;10967;-75
2024/01/23 06:45:40;;;;;;;;;2.50;2.00;;;;;;;;5072162;28;10891;-74
2024/01/23 06:48:07;;;;;;;;;2.75;2.75;;;;;;;;5068994;28;10839;-73
2024/01/23 06:50:35;;;;;;;;;4.75;2.00;;;;;;;;5069153;28;11099;-75
2024/01/23 06:53:03;;;;;;;;;7.00;2.50;;;;;;;;5067406;28;11120;-75
2024/01/23 06:55:31;;;;;;;;;4.00;2.00;;;;;;;;5066590;28;11032;-73
2024/01/23 06:57:58;;;;;;;;;5.25;2.50;;;;;;;;5066230;28;11196;-76
2024/01/23 07:00:26;;;;;;;;;3.00;2.00;;;;;;;;5059993;28;10980;-76
2024/01/23 07:02:54;;;;;;;;;2.50;2.50;;;;;;;;5068878;28;11083;-75
2024/01/23 07:05:21;;;;;;;;;9.00;2.75;;;;;;;;5066512;28;11107;-71
2024/01/23 07:07:48;;;;;;;;;4.00;4.00;;;;;;;;5062258;28;10925;-73
2024/01/23 07:10:15;;;;;;;;;7.75;4.00;;;;;;;;5070854;28;11059;-75
2024/01/23 07:12:42;;;;;;;;;3.25;3.25;;;;;;;;5070439;28;10875;-76
2024/01/23 07:15:10;;;;;;;;;4.00;2.75;;;;;;;;5074001;28;11767;-75
2024/01/23 07:17:38;;;;;;;;;7.00;2.50;;;;;;;;5058692;28;10833;-75
2024/01/23 07:20:10;;;;;;;;;4.75;3.25;;;;;;;;5072144;28;10930;-76
2024/01/23 07:22:37;;;;;;;;;4.00;4.00;;;;;;;;5069849;28;11501;-76
2024/01/23 07:25:04;;;;;;;;;5.50;3.50;;;;;;;;5069069;28;10826;-74
2024/01/23 07:27:31;;;;;;;;;5.00;2.50;;;;;;;;5067487;28;10995;-75
2024/01/23 07:30:02;;;;;;;;;4.00;3.25;;;;;;;;5069294;28;11766;-76
2024/01/23 07:32:30;;;;;;;;;2.25;2.00;;;;;;;;5068857;28;10932;-75
2024/01/23 07:35:01;;;;;;;;;3.50;3.00;;;;;;;;5067956;28;11627;-76
2024/01/23 07:37:31;;;;;;;;;4.50;3.00;;;;;;;;5069422;28;10842;-73
2024/01/23 07:40:00;;;;;;;;;4.00;4.00;;;;;;;;5069125;28;10853;-75
2024/01/23 07:42:28;;;;;;;;;5.50;5.00;;;;;;;;5069358;28;10697;-72
2024/01/23 07:44:55;;;;;;;;;2.75;2.75;;;;;;;;5068966;28;10704;-76
2024/01/23 07:47:24;;;;;;;;;2.50;2.50;;;;;;;;5068918;28;10692;-75
2024/01/23 07:49:51;;;;;;;;;3.75;2.00;;;;;;;;5068227;28;10708;-73
2024/01/23 07:52:21;;;;;;;;;2.75;2.75;;;;;;;;5068882;28;10706;-77
2024/01/23 07:54:50;;;;;;;;;3.50;2.25;;;;;;;;5068184;28;10701;-76
2024/01/23 07:57:17;;;;;;;;;1.25;1.25;;;;;;;;5069228;28;10698;-73
2024/01/23 07:59:44;;;;;;;;;3.25;3.00;;;;;;;;5068375;28;10545;-77
2024/01/23 08:02:12;;;;;;;;;2.25;2.25;;;;;;;;5067808;28;10606;-78
2024/01/23 08:04:39;;;;;;;;;5.50;4.00;;;;;;;;5067767;28;10526;-78
2024/01/23 08:07:06;;;;;;;;;3.00;3.00;;;;;;;;5068835;28;10605;-78
2024/01/23 08:09:35;;;;;;;;;4.75;2.25;;;;;;;;5063365;28;10554;-79
2024/01/23 08:12:05;;;;;;;;;2.50;2.50;;;;;;;;5064248;28;10469;-76
2024/01/23 08:14:32;;;;;;;;;4.50;2.00;;;;;;;;5069567;28;10520;-77
2024/01/23 08:16:59;;;;;;;;;8.00;2.00;;;;;;;;5060269;28;10492;-76
2024/01/23 08:19:27;;;;;;;;;4.00;2.00;;;;;;;;5071690;28;10597;-77
2024/01/23 08:21:54;;;;;;;;;3.50;3.00;;;;;;;;5072662;28;10532;-77
2024/01/23 08:24:21;;;;;;;;;2.75;2.00;;;;;;;;5072150;28;10653;-78
2024/01/23 08:26:52;;;;;;;;;4.00;3.00;;;;;;;;5071512;28;10591;-77
2024/01/23 08:29:19;;;;;;;;;7.50;4.50;;;;;;;;5071178;28;10655;-77
2024/01/23 08:31:46;;;;;;;;;5.75;3.50;;;;;;;;5071249;28;10583;-74
2024/01/23 08:34:14;;;;;;;;;4.00;3.00;;;;;;;;5067560;28;10617;-76
2024/01/23 08:36:41;;;;;;;;;6.25;3.00;;;;;;;;5066977;28;10526;-74
2024/01/23 08:39:08;;;;;;;;;7.00;3.00;;;;;;;;5068037;28;10727;-75
2024/01/23 08:41:36;;;;;;;;;3.75;2.25;;;;;;;;5067858;28;10551;-74
2024/01/23 08:44:05;;;;;;;;;4.00;3.00;;;;;;;;5067529;28;10528;-76
2024/01/23 08:46:32;;;;;;;;;6.25;5.25;;;;;;;;5067470;28;10583;-74
2024/01/23 08:49:00;;;;;;;;;4.25;2.25;;;;;;;;5068408;28;10559;-76
2024/01/23 08:51:28;;;;;;;;;3.00;3.00;;;;;;;;5067981;28;11300;-76
2024/01/23 08:53:55;;;;;;;;;3.75;2.00;;;;;;;;5067575;28;10613;-72
2024/01/23 08:56:23;;;;;;;;;5.50;4.00;;;;;;;;5066695;28;11699;-77
2024/01/23 08:58:50;;;;;;;;;8.00;4.25;;;;;;;;5067940;28;11854;-74
2024/01/23 09:01:19;;;;;;;;;4.00;2.75;;;;;;;;5063486;28;10584;-73
2024/01/23 09:03:46;;;;;;;;;8.50;3.25;;;;;;;;5068714;28;10459;-77
2024/01/23 09:06:14;;;;;;;;;6.25;4.25;;;;;;;;5071545;28;10524;-76
2024/01/23 09:08:42;;;;;;;;;4.00;3.00;;;;;;;;5070062;28;10610;-77
2024/01/23 09:11:10;;;;;;;;;4.00;2.75;;;;;;;;5063037;28;10475;-73
2024/01/23 09:13:37;;;;;;;;;5.00;4.00;;;;;;;;5061271;28;10642;-76
2024/01/23 09:16:05;;;;;;;;;6.00;3.00;;;;;;;;5066373;28;11298;-75
2024/01/23 09:18:33;;;;;;;;;2.75;2.75;;;;;;;;5066943;28;10543;-73
2024/01/23 09:21:02;;;;;;;;;11.00;4.50;;;;;;;;5066378;28;10401;-73
2024/01/23 09:23:32;;;;;;;;;2.75;2.75;;;;;;;;5068492;28;10479;-73
2024/01/23 09:26:00;;;;;;;;;5.50;2.00;;;;;;;;5067520;28;11158;-73
2024/01/23 09:28:27;;;;;;;;;0.00;0.00;;;;;;;;5067356;28;10393;-75
2024/01/23 09:30:54;;;;;;;;;2.00;2.00;;;;;;;;5066978;28;10295;-76
2024/01/23 09:33:24;;;;;;;;;10.00;6.00;;;;;;;;5066122;28;10290;-76
2024/01/23 09:35:52;;;;;;;;;9.00;6.75;;;;;;;;5062996;28;10424;-77
2024/01/23 09:38:20;;;;;;;;;5.00;3.50;;;;;;;;5067140;28;10486;-76
2024/01/23 09:40:50;;;;;;;;;10.25;5.50;;;;;;;;5066635;28;10314;-75
2024/01/23 09:43:21;;;;;;;;;4.75;3.00;;;;;;;;5066881;28;10264;-73
2024/01/23 09:45:49;;;;;;;;;10.00;3.00;;;;;;;;5066708;28;10104;-77
2024/01/23 09:48:16;;;;;;;;;5.75;4.00;;;;;;;;5064125;28;10066;-77
2024/01/23 09:50:45;;;;;;;;;4.75;2.00;;;;;;;;5057871;28;10269;-77
2024/01/23 09:53:14;;;;;;;;;3.00;2.00;;;;;;;;5063947;28;10073;-77
2024/01/23 09:55:41;;;;;;;;;5.25;3.75;;;;;;;;5059456;28;10077;-77
2024/01/23 09:58:10;;;;;;;;;2.25;2.25;;;;;;;;5071476;28;10212;-78
2024/01/23 10:00:38;;;;;;;;;5.50;5.50;;;;;;;;5071331;28;10127;-79
2024/01/23 10:03:07;;;;;;;;;7.00;3.00;;;;;;;;5071989;28;10258;-75
2024/01/23 10:05:35;;;;;;;;;5.75;3.25;;;;;;;;5074103;28;10033;-78
2024/01/23 10:08:03;;;;;;;;;5.00;3.75;;;;;;;;5075178;28;9949;-78
2024/01/23 10:10:32;;;;;;;;;6.00;3.50;;;;;;;;5076851;28;10105;-73
2024/01/23 10:13:00;;;;;;;;;7.50;2.00;;;;;;;;5072264;28;10134;-78
2024/01/23 10:15:27;;;;;;;;;7.00;5.00;;;;;;;;5077484;28;9937;-74
2024/01/23 10:17:54;;;;;;;;;7.50;3.25;;;;;;;;5066703;28;10094;-78
2024/01/23 10:20:22;;;;;;;;;8.50;4.00;;;;;;;;5074782;28;10068;-76
2024/01/23 10:22:49;;;;;;;;;5.25;3.75;;;;;;;;5070073;28;9944;-79
2024/01/23 10:25:20;;;;;;;;;9.00;5.00;;;;;;;;5064513;28;10663;-78
2024/01/23 10:27:53;;;;;;;;;5.00;4.25;;;;;;;;5067577;28;9960;-74
2024/01/23 10:30:20;;;;;;;;;9.00;5.00;;;;;;;;5067763;28;11002;-74
2024/01/23 10:32:50;;;;;;;;;10.25;6.75;;;;;;;;5072526;28;10049;-73
2024/01/23 10:35:17;;;;;;;;;6.00;4.25;;;;;;;;5061753;28;10167;-74
2024/01/23 10:37:46;;;;;;;;;10.00;3.75;;;;;;;;5068060;28;9951;-74
2024/01/23 10:40:15;;;;;;;;;3.00;3.00;;;;;;;;5066183;28;10073;-74
2024/01/23 10:42:42;;;;;;;;;4.50;2.50;;;;;;;;5067802;28;10721;-77
2024/01/23 10:45:11;;;;;;;;;5.50;3.25;;;;;;;;5063338;28;9969;-73
2024/01/23 10:47:39;;;;;;;;;4.00;4.00;;;;;;;;5063923;28;9973;-75
2024/01/23 10:50:09;;;;;;;;;6.50;4.00;;;;;;;;5059184;28;10140;-77
2024/01/23 10:52:40;;;;;;;;;5.75;4.75;;;;;;;;5071414;28;10820;-78
2024/01/23 10:55:08;;;;;;;;;5.75;4.75;;;;;;;;5069527;28;9960;-78
2024/01/23 10:57:38;;;;;;;;;6.75;4.00;;;;;;;;5073412;28;10081;-77
2024/01/23 11:00:06;;;;;;;;;5.00;5.00;;;;;;;;5071405;28;9927;-74
2024/01/23 11:02:40;;;;;;;;;4.00;4.00;;;;;;;;5076567;28;9828;-79
2024/01/23 11:05:08;;;;;;;;;8.75;4.25;;;;;;;;5074811;28;9966;-79
2024/01/23 11:07:42;;;;;;;;;5.75;5.00;;;;;;;;5067860;28;9776;-78
2024/01/23 11:10:17;;;;;;;;;9.75;5.75;;;;;;;;5080231;28;9924;-80
2024/01/23 11:12:50;;;;;;;;;4.00;4.00;;;;;;;;5064242;28;9928;-79
2024/01/23 11:15:17;;;;;;;;;8.00;5.50;;;;;;;;5062111;28;9736;-76
2024/01/23 11:17:47;;;;;;;;;10.75;8.00;;;;;;;;5054631;28;9935;-75
2024/01/23 11:20:17;;;;;;;;;8.75;7.00;;;;;;;;5070139;28;10085;-77
2024/01/23 11:22:45;;;;;;;;;5.00;5.00;;;;;;;;5071394;28;9923;-76
2024/01/23 11:25:17;;;;;;;;;6.75;4.75;;;;;;;;5071845;28;9883;-74
2024/01/23 11:27:48;;;;;;;;;12.00;5.00;;;;;;;;5067371;28;9894;-80
2024/01/23 11:30:19;;;;;;;;;10.50;5.25;;;;;;;;5069109;28;9797;-76
2024/01/23 11:32:50;;;;;;;;;11.50;9.50;;;;;;;;5069396;28;9779;-73
2024/01/23 11:35:18;;;;;;;;;8.00;6.00;;;;;;;;5068897;28;9933;-78
2024/01/23 11:37:51;;;;;;;;;7.75;5.75;;;;;;;;5060361;28;10635;-72
2024/01/23 11:40:35;;;;;;;;;7.25;5.00;;;;;;;;5058553;28;10629;-73
2024/01/23 11:43:03;;;;;;;;;3.00;3.00;;;;;;;;5063388;28;9930;-79
2024/01/23 11:45:32;;;;;;;;;8.75;4.25;;;;;;;;5058011;28;9856;-77
2024/01/23 11:48:05;;;;;;;;;6.00;4.25;;;;;;;;5069376;28;9922;-81
2024/01/23 11:50:34;;;;;;;;;13.25;10.00;;;;;;;;5069356;28;9935;-82
2024/01/23 11:53:02;;;;;;;;;6.50;5.00;;;;;;;;5068416;28;10117;-80
2024/01/23 11:55:33;;;;;;;;;12.75;7.50;;;;;;;;5081895;28;9851;-78
2024/01/23 11:58:01;;;;;;;;;9.75;6.00;;;;;;;;5093546;28;9867;-75
2024/01/23 12:00:28;;;;;;;;;11.50;7.50;;;;;;;;5085954;28;9883;-81
2024/01/23 12:02:56;;;;;;;;;7.25;6.00;;;;;;;;5095706;28;9975;-80
2024/01/23 12:05:24;;;;;;;;;8.25;6.00;;;;;;;;5087943;28;9974;-77
2024/01/23 12:07:51;;;;;;;;;12.75;6.75;;;;;;;;5092805;28;9891;-80
2024/01/23 12:10:20;;;;;;;;;7.50;6.50;;;;;;;;5094195;28;9850;-78
2024/01/23 12:12:51;;;;;;;;;7.50;7.00;;;;;;;;5092530;28;9844;-80
2024/01/23 12:15:18;;;;;;;;;10.25;7.00;;;;;;;;5090129;28;10707;-78
2024/01/23 12:17:50;;;;;;;;;12.25;9.50;;;;;;;;5089588;28;9758;-77
2024/01/23 12:20:17;;;;;;;;;12.25;10.00;;;;;;;;5090111;28;9939;-78
2024/01/23 12:22:47;;;;;;;;;7.50;7.50;;;;;;;;5090284;28;9949;-79
2024/01/23 12:25:15;;;;;;;;;13.50;8.00;;;;;;;;5088836;28;9915;-75
2024/01/23 12:27:43;;;;;;;;;15.00;10.50;;;;;;;;5087859;28;9950;-79
2024/01/23 12:30:14;;;;;;;;;13.00;8.25;;;;;;;;5085172;28;9927;-74
2024/01/23 12:32:41;;;;;;;;;10.50;6.25;;;;;;;;5088228;28;9960;-75
2024/01/23 12:35:10;;;;;;;;;5.75;4.00;;;;;;;;5083475;28;9945;-75
2024/01/23 12:37:39;;;;;;;;;10.50;6.75;;;;;;;;5087727;28;9921;-74
2024/01/23 12:40:10;;;;;;;;;9.50;9.25;;;;;;;;5088409;28;10026;-75
2024/01/23 12:42:40;;;;;;;;;11.75;7.50;;;;;;;;5084513;28;9947;-79
2024/01/23 12:45:10;;;;;;;;;13.75;9.25;;;;;;;;5090761;28;9922;-75
2024/01/23 12:47:38;;;;;;;;;12.00;8.25;;;;;;;;5091109;28;10106;-81
2024/01/23 12:50:06;;;;;;;;;8.00;8.00;;;;;;;;5090854;28;9974;-76
2024/01/23 12:52:33;;;;;;;;;5.00;4.00;;;;;;;;5088746;28;10186;-76
2024/01/23 12:55:03;;;;;;;;;10.75;8.75;;;;;;;;5081585;28;10068;-77
2024/01/23 12:57:32;;;;;;;;;13.00;6.75;;;;;;;;5087600;28;10050;-77
2024/01/23 13:00:08;;;;;;;;;11.25;8.25;;;;;;;;5082411;28;10283;-78
2024/01/23 13:02:36;;;;;;;;;10.00;10.00;;;;;;;;5087881;28;10000;-78
2024/01/23 13:05:03;;;;;;;;;10.75;9.00;;;;;;;;5087647;28;10309;-79
2024/01/23 13:07:30;;;;;;;;;10.50;9.00;;;;;;;;5081175;28;10079;-74
2024/01/23 13:09:58;;;;;;;;;7.75;6.00;;;;;;;;5087866;28;10205;-81
2024/01/23 13:12:26;;;;;;;;;13.25;11.75;;;;;;;;5088401;28;10114;-80
2024/01/23 13:14:54;;;;;;;;;13.50;10.50;;;;;;;;5087704;28;10462;-81
2024/01/23 13:17:22;;;;;;;;;13.25;11.25;;;;;;;;5087916;28;10224;-77
2024/01/23 13:19:49;;;;;;;;;11.75;9.00;;;;;;;;5087936;28;10281;-78
2024/01/23 13:22:17;;;;;;;;;9.75;7.50;;;;;;;;5085764;28;10152;-76
2024/01/23 13:24:44;;;;;;;;;11.00;9.75;;;;;;;;5087693;28;10159;-79
2024/01/23 13:27:12;;;;;;;;;13.75;10.25;;;;;;;;5088089;28;10027;-76
2024/01/23 13:29:39;;;;;;;;;7.50;7.50;;;;;;;;5096560;28;10349;-72
2024/01/23 13:32:08;;;;;;;;;12.75;10.75;;;;;;;;5096977;28;10034;-73
2024/01/23 13:34:37;;;;;;;;;13.50;8.50;;;;;;;;5083552;28;10276;-72
2024/01/23 13:37:05;;;;;;;;;11.50;9.75;;;;;;;;5087481;28;10116;-75
2024/01/23 13:39:32;;;;;;;;;9.75;8.00;;;;;;;;5079548;28;10107;-82
2024/01/23 13:42:02;;;;;;;;;5.25;5.25;;;;;;;;5092223;28;10167;-80
2024/01/23 13:44:30;;;;;;;;;8.75;5.75;;;;;;;;5086830;28;10157;-79
2024/01/23 13:47:00;;;;;;;;;11.00;7.00;;;;;;;;5096386;28;10087;-82
2024/01/23 13:49:31;;;;;;;;;12.50;10.75;;;;;;;;5098144;28;10077;-82
2024/01/23 13:51:58;;;;;;;;;10.75;10.50;;;;;;;;5094093;28;10095;-79
2024/01/23 13:54:25;;;;;;;;;11.00;11.00;;;;;;;;5099602;28;10218;-82
2024/01/23 13:56:53;;;;;;;;;9.50;6.50;;;;;;;;5098679;28;10077;-82
2024/01/23 13:59:20;;;;;;;;;7.50;6.50;;;;;;;;5098752;28;10048;-82
2024/01/23 14:01:47;;;;;;;;;5.75;5.75;;;;;;;;5097607;28;9990;-81
2024/01/23 14:04:14;;;;;;;;;7.75;5.75;;;;;;;;5094328;28;10147;-77
2024/01/23 14:06:44;;;;;;;;;9.25;6.75;;;;;;;;5091561;28;10134;-81
2024/01/23 14:09:12;;;;;;;;;10.00;8.00;;;;;;;;5093364;28;10056;-78
2024/01/23 14:11:40;;;;;;;;;7.25;7.00;;;;;;;;5093278;28;9989;-82
2024/01/23 14:14:07;;;;;;;;;10.50;9.25;;;;;;;;5092386;28;10013;-79
2024/01/23 14:16:35;;;;;;;;;7.00;6.75;;;;;;;;5089979;28;9903;-80
2024/01/23 14:19:02;;;;;;;;;13.75;6.50;;;;;;;;5091118;28;9904;-80
2024/01/23 14:21:29;;;;;;;;;5.00;4.00;;;;;;;;5091285;28;9963;-78
2024/01/23 14:24:01;;;;;;;;;8.25;5.50;;;;;;;;5090747;28;9703;-76
2024/01/23 14:26:31;;;;;;;;;10.00;6.00;;;;;;;;5090083;28;9862;-77
2024/01/23 14:28:58;;;;;;;;;7.25;6.25;;;;;;;;5089418;28;9786;-75
2024/01/23 14:31:25;;;;;;;;;11.00;7.00;;;;;;;;5091372;28;9810;-76
2024/01/23 14:33:52;;;;;;;;;4.25;4.25;;;;;;;;5091802;28;9852;-78
2024/01/23 14:36:20;;;;;;;;;13.00;6.50;;;;;;;;5092839;28;10135;-75
2024/01/23 14:38:47;;;;;;;;;6.50;3.25;;;;;;;;5093121;28;9760;-75
2024/01/23 14:41:15;;;;;;;;;7.00;6.75;;;;;;;;5091869;28;9613;-80
2024/01/23 14:43:42;;;;;;;;;3.50;3.50;;;;;;;;5090319;28;9871;-79
2024/01/23 14:46:10;;;;;;;;;6.00;4.00;;;;;;;;5090902;28;9835;-81
2024/01/23 14:48:37;;;;;;;;;7.50;6.00;;;;;;;;5084156;28;9789;-80
2024/01/23 14:51:04;;;;;;;;;10.00;6.00;;;;;;;;5082649;28;9711;-79